Arvidsjaur, Sweden

4:56 AM CEST on September 20, 2014 (GMT +0200)
Arvidsjaur | Change Station
CLOSE
Current Station
Airport
Location: ARVIDSJAUR,
Elevation: 1243 ft
Nearby Weather Stations

Elev 1243 ft 65.59 °N, 19.28 °E | Updated 6 minutes ago

Clear
Clear
37 °F
Feels Like 37 °F
N
2
Wind Variable Wind from Variable

Today
High -- | Low -- °F
--% Chance of Precip.
Yesterday
High -- | Low -- °F
Precip. -- in
6:18 AM 6:52 PM
Waning Crescent, 15% visible
Pressure 29.86 in
Visibility -9999.0 miles
Clouds
Dew Point 37 °F
Humidity 100%
Rainfall 0.00 in
Snow Depth Not available.
UV Not available.
Pollen Not available.
Air Quality Not available.
Flu Activity Not available.
METAR ESNX 200250Z AUTO VRB02KT 4200NDV NCD 03/03 Q1011

More Conditions Fewer Conditions

Pressure 29.86 in
Visibility -9999.0 miles
Clouds
Dew Point 37 °F
Humidity 100%
Rainfall 0.00 in
Snow Depth Not available.
UV Not available.
Pollen Not available.
Air Quality Not available.
Flu Activity Not available.
METAR ESNX 200250Z AUTO VRB02KT 4200NDV NCD 03/03 Q1011

More Conditions Fewer Conditions

10-Day Weather Forecast

Almanac

Astronomy

Sep. 20, 2014 Rise Set
Actual Time 6:18 AM CEST 6:52 PM CEST
Civil Twilight 5:27 AM CEST 7:43 PM CEST
Nautical Twilight 4:23 AM CEST 8:46 PM CEST
Astronomical Twilight 3:06 AM CEST 10:02 PM CEST
Moon 1:31 AM CEST 5:42 PM CEST
Length of Visible Light 14h 16m
Length of Day
12h 34m
Tomorrow will be 6m 52s shorter.
Waning Crescent, 15% of the Moon is Illuminated
Sep 19
Waning Crescent
Sep 24
New
Oct 1
First Quarter
Oct 8
Full
Oct 15
Last Quarter

Yesterday's Extremes

Country Highs Country Lows

Community

WunderPhotos

Upload Photos

1,754,768 photos uploaded!

WunderBlogs® & News

Nearby

Snow Depth

Not available.

Earthquake Activity

City Distance Mag. Time & Date
No recent earthquake activity has been reported nearby.
Minimum magnitude displayed is 2.5.

Coastal Water Temperatures

Place Temperature
No Stations Reporting

Nearby Weather Stations